createdAt,value
2019-06-20T00:04:40.052Z,100325.17
2019-06-20T00:09:42.232Z,100334.11
2019-06-20T00:14:44.754Z,100341.19
2019-06-20T00:19:46.954Z,100347.22
2019-06-20T00:24:49.241Z,100369.98
2019-06-20T00:29:51.476Z,100369.41
2019-06-20T00:34:53.950Z,100352.87
2019-06-20T00:39:56.752Z,100337.51
2019-06-20T00:44:59.283Z,100327.06
2019-06-20T00:50:01.841Z,100306.86
2019-06-20T00:55:05.952Z,100273.92
2019-06-20T01:00:09.493Z,100291.67
2019-06-20T01:05:12.604Z,100319.23
2019-06-20T01:10:16.710Z,100348.16
2019-06-20T01:15:19.396Z,100368.63
2019-06-20T01:20:23.543Z,100415.86
2019-06-20T01:25:37.429Z,100394.52
2019-06-20T01:30:40.384Z,100370.70
2019-06-20T01:35:42.916Z,100368.23
2019-06-20T01:40:45.331Z,100376.97
2019-06-20T01:45:47.844Z,100356.87
2019-06-20T01:50:50.146Z,100340.67
2019-06-20T01:55:52.675Z,100341.55
2019-06-20T02:00:55.782Z,100348.36
2019-06-20T02:05:58.548Z,100348.36
2019-06-20T02:11:00.927Z,100347.07
2019-06-20T02:16:04.430Z,100339.48
2019-06-20T02:21:07.401Z,100344.17
2019-06-20T02:26:10.287Z,100343.20
2019-06-20T02:31:13.090Z,100333.33
2019-06-20T02:36:15.293Z,100346.29
2019-06-20T02:41:17.968Z,100344.89
2019-06-20T02:46:20.651Z,100338.75
2019-06-20T02:51:25.600Z,100346.78
2019-06-20T02:56:28.902Z,100373.66
2019-06-20T03:01:31.110Z,100377.56
2019-06-20T03:06:33.687Z,100384.73
2019-06-20T03:11:35.892Z,100389.92
2019-06-20T03:16:38.546Z,100412.38
2019-06-20T03:21:41.679Z,100449.53
2019-06-20T03:26:44.168Z,100434.11
2019-06-20T03:31:46.374Z,100423.59
2019-06-20T03:36:49.245Z,100434.77
2019-06-20T03:41:51.607Z,100407.20
2019-06-20T03:46:53.815Z,100392.39
2019-06-20T03:51:55.992Z,100401.00
2019-06-20T03:56:59.655Z,100405.55
2019-06-20T04:02:01.898Z,100412.44
2019-06-20T04:07:04.409Z,100412.44
2019-06-20T04:12:06.904Z,100402.83
2019-06-20T04:17:09.078Z,100391.92
2019-06-20T04:22:12.612Z,100388.63
2019-06-20T04:27:15.588Z,100386.17
2019-06-20T04:32:18.043Z,100385.91
2019-06-20T04:37:20.699Z,100394.31
2019-06-20T04:42:24.159Z,100410.51
2019-06-20T04:47:26.393Z,100418.62
2019-06-20T04:52:28.557Z,100426.58
2019-06-20T04:57:31.224Z,100433.84
2019-06-20T05:02:33.999Z,100440.05
2019-06-20T05:07:36.175Z,100425.05
2019-06-20T05:12:38.356Z,100424.44
2019-06-20T05:17:40.576Z,100418.88
2019-06-20T05:22:44.362Z,100430.13
2019-06-20T05:27:46.556Z,100437.83
2019-06-20T05:32:48.791Z,100440.92
2019-06-20T05:37:51.730Z,100440.35
2019-06-20T05:42:54.650Z,100432.88
2019-06-20T05:47:57.340Z,100419.30
2019-06-20T05:52:59.533Z,100407.08
2019-06-20T05:58:01.987Z,100412.48
2019-06-20T06:03:07.089Z,100421.77
2019-06-20T06:08:08.738Z,100445.15
2019-06-20T06:13:11.301Z,100455.56
2019-06-20T06:18:14.237Z,100465.96
2019-06-20T06:23:17.438Z,100485.15
2019-06-20T06:28:20.148Z,100514.30
2019-06-20T06:33:22.307Z,100612.46
2019-06-20T06:38:24.860Z,100636.77
2019-06-20T06:43:27.153Z,100663.04
2019-06-20T06:48:30.002Z,100672.80
2019-06-20T06:53:32.424Z,100672.80
2019-06-20T06:58:34.560Z,100650.58
2019-06-20T07:03:37.382Z,100643.55
2019-06-20T07:08:39.574Z,100658.18
2019-06-20T07:13:42.581Z,100635.34
2019-06-20T07:18:45.761Z,100642.62
2019-06-20T07:23:48.225Z,100636.80
2019-06-20T07:28:51.604Z,100632.99
2019-06-20T07:33:54.042Z,100626.32
2019-06-20T07:38:56.532Z,100624.59
2019-06-20T07:43:58.740Z,100624.45
2019-06-20T07:49:01.208Z,100628.69
2019-06-20T07:54:05.256Z,100620.89
2019-06-20T07:59:08.086Z,100600.88
2019-06-20T08:04:10.858Z,100593.78
2019-06-20T08:09:13.968Z,100617.25
2019-06-20T08:14:16.522Z,100615.33
2019-06-20T08:19:18.762Z,100601.86
2019-06-20T08:24:21.621Z,100595.09
2019-06-20T08:29:24.635Z,100612.66
2019-06-20T08:34:27.424Z,100602.98
2019-06-20T08:39:29.736Z,100601.87
2019-06-20T08:44:32.725Z,100589.84
2019-06-20T08:49:35.238Z,100593.98
2019-06-20T08:54:38.468Z,100585.45
2019-06-20T08:59:40.669Z,100614.97
2019-06-20T09:04:42.947Z,100610.47
2019-06-20T09:09:46.293Z,100620.23
2019-06-20T09:14:48.906Z,100625.45
2019-06-20T09:19:52.893Z,100626.19
2019-06-20T09:24:56.806Z,100627.66
2019-06-20T09:30:00.412Z,100627.88
2019-06-20T09:35:04.190Z,100612.59
2019-06-20T09:40:08.246Z,100617.72
2019-06-20T09:45:11.545Z,100627.37
2019-06-20T09:50:16.117Z,100653.66
2019-06-20T09:55:18.759Z,100659.25
2019-06-20T10:00:23.532Z,100661.39
2019-06-20T10:05:26.097Z,100659.47
2019-06-20T10:10:29.328Z,100663.33
2019-06-20T10:15:35.781Z,100670.64
2019-06-20T10:20:39.114Z,100673.36
2019-06-20T10:25:41.722Z,100676.18
2019-06-20T10:30:44.781Z,100683.48
2019-06-20T10:35:48.445Z,100683.31
2019-06-20T10:40:51.997Z,100682.16
2019-06-20T10:45:55.062Z,100681.09
2019-06-20T10:51:17.005Z,100681.80
2019-06-20T10:56:19.457Z,100676.38
2019-06-20T11:01:22.189Z,100671.20
2019-06-20T11:06:24.350Z,100680.54
2019-06-20T11:11:26.831Z,100675.47
2019-06-20T11:16:29.275Z,100674.47
2019-06-20T11:21:31.661Z,100674.13
2019-06-20T11:26:34.096Z,100664.47
2019-06-20T11:31:37.605Z,100658.99
2019-06-20T11:36:42.430Z,100664.32
2019-06-20T11:41:45.010Z,100668.85
2019-06-20T11:46:47.886Z,100655.56
2019-06-20T11:51:50.084Z,100655.55
2019-06-20T11:56:52.266Z,100666.03
2019-06-20T12:01:54.481Z,100668.44
2019-06-20T12:06:56.623Z,100665.45
2019-06-20T12:11:59.129Z,100661.59
2019-06-20T12:17:01.640Z,100660.56
2019-06-20T12:22:04.088Z,100655.66
2019-06-20T12:27:06.610Z,100650.13
2019-06-20T12:32:10.120Z,100654.34
2019-06-20T12:37:13.018Z,100651.06
2019-06-20T12:42:15.815Z,100648.33
2019-06-20T12:47:19.746Z,100639.05
2019-06-20T12:52:22.532Z,100638.08
2019-06-20T12:57:24.835Z,100638.17
2019-06-20T13:02:27.449Z,100640.57
2019-06-20T13:07:29.714Z,100641.48
2019-06-20T13:12:31.897Z,100642.16
2019-06-20T13:17:34.914Z,100628.98
2019-06-20T13:22:37.821Z,100624.26
2019-06-20T13:27:43.282Z,100626.61
2019-06-20T13:32:46.975Z,100625.69
2019-06-20T13:37:50.134Z,100621.09
2019-06-20T13:42:54.580Z,100609.19
2019-06-20T13:47:56.639Z,100635.95
2019-06-20T13:52:59.855Z,100638.43
2019-06-20T13:58:02.135Z,100645.66
2019-06-20T14:03:05.096Z,100643.04
2019-06-20T14:08:07.904Z,100644.14
2019-06-20T14:13:18.609Z,100648.78
2019-06-20T14:18:14.429Z,100633.92
2019-06-20T14:23:16.888Z,100638.34
2019-06-20T14:28:19.128Z,100638.02
2019-06-20T14:33:21.320Z,100644.58
2019-06-20T14:38:24.093Z,100646.56
2019-06-20T14:43:27.011Z,100647.33
2019-06-20T14:48:30.012Z,100645.34
2019-06-20T14:53:32.690Z,100633.55
2019-06-20T14:58:35.068Z,100641.66
2019-06-20T15:03:37.900Z,100637.11
2019-06-20T15:08:41.315Z,100629.99
2019-06-20T15:13:44.441Z,100638.40
2019-06-20T15:18:50.199Z,100642.03
2019-06-20T15:23:52.571Z,100642.08
2019-06-20T15:28:56.976Z,100635.62
2019-06-20T15:33:59.439Z,100630.55
2019-06-20T15:39:02.098Z,100625.22
2019-06-20T15:44:06.405Z,100624.56
2019-06-20T15:49:16.165Z,100621.83
2019-06-20T15:54:14.426Z,100621.78
2019-06-20T15:59:17.259Z,100620.19
2019-06-20T16:04:21.098Z,100628.98
2019-06-20T16:09:23.716Z,100624.55
2019-06-20T16:14:26.588Z,100618.78
2019-06-20T16:19:28.801Z,100616.48
2019-06-20T16:24:30.969Z,100613.06
2019-06-20T16:29:34.047Z,100605.98
2019-06-20T16:34:36.225Z,100602.87
2019-06-20T16:39:38.722Z,100605.91
2019-06-20T16:44:42.241Z,100612.54
2019-06-20T16:49:45.110Z,100605.16
2019-06-20T16:54:47.335Z,100606.11
2019-06-20T16:59:49.654Z,100612.22
2019-06-20T17:04:52.156Z,100616.81
2019-06-20T17:09:54.457Z,100626.48
2019-06-20T17:14:56.944Z,100633.69
2019-06-20T17:19:59.515Z,100638.73
2019-06-20T17:25:02.074Z,100634.10
2019-06-20T17:30:06.838Z,100629.80
2019-06-20T17:35:10.467Z,100631.95
2019-06-20T17:40:14.387Z,100639.25
2019-06-20T17:45:18.009Z,100649.19
2019-06-20T17:50:21.589Z,100654.22
2019-06-20T17:55:23.911Z,100660.84
2019-06-20T18:00:27.423Z,100659.70
2019-06-20T18:05:30.396Z,100664.40
2019-06-20T18:10:32.747Z,100669.66
2019-06-20T18:15:35.050Z,100662.35
2019-06-20T18:20:39.325Z,100671.91
2019-06-20T18:25:41.702Z,100669.12
2019-06-20T18:30:45.750Z,100675.42
2019-06-20T18:35:48.540Z,100684.46
2019-06-20T18:40:51.218Z,100687.75
2019-06-20T18:45:53.486Z,100697.11
2019-06-20T18:50:56.800Z,100706.73
2019-06-20T18:55:59.279Z,100706.52
2019-06-20T19:01:02.642Z,100717.93
2019-06-20T19:06:04.952Z,100713.11
2019-06-20T19:11:07.444Z,100716.48
2019-06-20T19:16:09.731Z,100736.83
2019-06-20T19:21:12.256Z,100749.73
2019-06-20T19:26:14.734Z,100759.62
2019-06-20T19:31:18.349Z,100761.98
2019-06-20T19:36:20.761Z,100762.19
2019-06-20T19:41:23.502Z,100747.09
2019-06-20T19:46:26.926Z,100759.30
2019-06-20T19:51:29.890Z,100766.58
2019-06-20T19:56:32.199Z,100764.68
2019-06-20T20:01:34.496Z,100765.84
2019-06-20T20:06:38.084Z,100771.70
2019-06-20T20:11:41.610Z,100785.66
2019-06-20T20:16:43.993Z,100779.71
2019-06-20T20:21:47.290Z,100783.33
2019-06-20T20:26:49.769Z,100786.77
2019-06-20T20:31:51.974Z,100785.35
2019-06-20T20:36:54.255Z,100791.32
2019-06-20T20:41:57.081Z,100794.36
2019-06-20T20:46:59.780Z,100793.94
2019-06-20T20:52:02.528Z,100785.09
2019-06-20T20:57:04.889Z,100787.79
2019-06-20T21:02:07.886Z,100783.22
2019-06-20T21:07:10.934Z,100796.53
2019-06-20T21:12:13.805Z,100797.23
2019-06-20T21:17:16.331Z,100801.88
2019-06-20T21:22:18.536Z,100814.17
2019-06-20T21:27:20.772Z,100825.67
2019-06-20T21:32:23.554Z,100829.38
2019-06-20T21:37:25.821Z,100837.52
2019-06-20T21:42:28.735Z,100832.53
2019-06-20T21:47:30.961Z,100829.58
2019-06-20T21:52:33.447Z,100826.80
2019-06-20T21:57:35.844Z,100838.09
2019-06-20T22:02:38.708Z,100837.66
2019-06-20T22:07:40.945Z,100835.17
2019-06-20T22:12:43.462Z,100837.70
2019-06-20T22:17:46.078Z,100838.03
2019-06-20T22:22:49.061Z,100842.84
2019-06-20T22:27:51.575Z,100845.38
2019-06-20T22:32:54.690Z,100832.59
2019-06-20T22:37:56.858Z,100828.77
2019-06-20T22:42:59.654Z,100817.48
2019-06-20T22:48:02.651Z,100811.48
2019-06-20T22:53:05.055Z,100819.78
2019-06-20T22:58:07.216Z,100816.95
2019-06-20T23:03:10.590Z,100821.40
2019-06-20T23:08:14.252Z,100818.48
2019-06-20T23:13:17.625Z,100828.21
2019-06-20T23:18:20.447Z,100824.56
2019-06-20T23:23:22.641Z,100834.69
2019-06-20T23:28:25.376Z,100839.53
2019-06-20T23:33:27.691Z,100851.34
2019-06-20T23:38:30.445Z,100858.64
2019-06-20T23:43:32.925Z,100862.52
2019-06-20T23:48:35.327Z,100862.92
2019-06-20T23:53:37.700Z,100872.56
2019-06-20T23:58:41.055Z,100880.59
